createdAt,value
2022-11-10T00:00:56.444Z,14.2
2022-11-10T00:01:59.868Z,14.2
2022-11-10T00:03:02.582Z,14.2
2022-11-10T00:04:05.602Z,14.2
2022-11-10T00:05:09.358Z,14.2
2022-11-10T00:06:12.437Z,14.2
2022-11-10T00:07:15.975Z,14.2
2022-11-10T00:08:18.815Z,14.1
2022-11-10T00:09:22.414Z,14.1
2022-11-10T00:10:25.590Z,14.1
2022-11-10T00:11:28.741Z,14.1
2022-11-10T00:12:31.627Z,14.1
2022-11-10T00:13:34.805Z,14.1
2022-11-10T00:14:37.556Z,14.1
2022-11-10T00:15:41.050Z,14.1
2022-11-10T00:16:44.825Z,14.1
2022-11-10T00:17:47.716Z,14.1
2022-11-10T00:18:51.441Z,14.1
2022-11-10T00:19:54.158Z,14.1
2022-11-10T00:20:57.699Z,14.1
2022-11-10T00:22:01.062Z,14.1
2022-11-10T00:23:04.237Z,14.1
2022-11-10T00:24:07.218Z,14.1
2022-11-10T00:25:10.654Z,14.1
2022-11-10T00:26:13.516Z,14.1
2022-11-10T00:27:16.936Z,14.1
2022-11-10T00:28:20.183Z,14.1
2022-11-10T00:29:23.082Z,14.1
2022-11-10T00:30:26.522Z,14
2022-11-10T00:31:29.510Z,14
2022-11-10T00:32:32.740Z,14
2022-11-10T00:33:35.532Z,14
2022-11-10T00:34:38.885Z,14
2022-11-10T00:35:42.063Z,14
2022-11-10T00:36:45.820Z,14
2022-11-10T00:37:49.168Z,14
2022-11-10T00:38:51.969Z,13.9
2022-11-10T00:39:54.593Z,13.9
2022-11-10T00:40:57.787Z,13.9
2022-11-10T00:42:00.772Z,13.9
2022-11-10T00:43:03.570Z,13.9
2022-11-10T00:44:07.017Z,13.9
2022-11-10T00:45:09.738Z,13.9
2022-11-10T00:46:12.175Z,13.9
2022-11-10T00:47:14.778Z,13.9
2022-11-10T00:48:17.852Z,13.9
2022-11-10T00:49:20.099Z,13.9
2022-11-10T00:50:22.696Z,13.8
2022-11-10T00:51:26.332Z,13.8
2022-11-10T00:52:29.601Z,13.8
2022-11-10T00:53:33.370Z,13.8
2022-11-10T00:54:36.237Z,13.8
2022-11-10T00:55:39.319Z,13.8
2022-11-10T00:56:42.774Z,13.7
2022-11-10T00:57:45.291Z,13.7
2022-11-10T00:58:48.373Z,13.7
2022-11-10T00:59:51.232Z,13.7
2022-11-10T01:00:55.046Z,13.7
2022-11-10T01:01:58.031Z,13.7
2022-11-10T01:03:01.721Z,13.7
2022-11-10T01:04:04.566Z,13.7
2022-11-10T01:05:06.829Z,13.7
2022-11-10T01:06:10.278Z,13.7
2022-11-10T01:07:13.383Z,13.7
2022-11-10T01:08:17.076Z,13.7
2022-11-10T01:09:20.768Z,13.7
2022-11-10T01:10:23.664Z,13.7
2022-11-10T01:11:26.823Z,13.7
2022-11-10T01:12:30.250Z,13.7
2022-11-10T01:13:33.396Z,13.7
2022-11-10T01:14:36.106Z,13.7
2022-11-10T01:15:39.204Z,13.7
2022-11-10T01:16:42.756Z,13.7
2022-11-10T01:17:45.760Z,13.7
2022-11-10T01:18:48.892Z,13.7
2022-11-10T01:19:51.790Z,13.6
2022-11-10T01:20:54.583Z,13.7
2022-11-10T01:21:57.467Z,13.6
2022-11-10T01:23:00.613Z,13.7
2022-11-10T01:24:04.106Z,13.6
2022-11-10T01:25:07.247Z,13.6
2022-11-10T01:26:10.715Z,13.7
2022-11-10T01:27:14.180Z,13.6
2022-11-10T01:28:17.276Z,13.7
2022-11-10T01:29:20.629Z,13.7
2022-11-10T01:30:24.338Z,13.7
2022-11-10T01:31:28.055Z,13.7
2022-11-10T01:32:31.825Z,13.6
2022-11-10T01:33:35.557Z,13.6
2022-11-10T01:34:38.713Z,13.6
2022-11-10T01:35:41.630Z,13.6
2022-11-10T01:36:44.529Z,13.6
2022-11-10T01:37:47.603Z,13.6
2022-11-10T01:38:50.882Z,13.6
2022-11-10T01:39:54.606Z,13.7
2022-11-10T01:40:57.975Z,13.7
2022-11-10T01:42:01.482Z,13.7
2022-11-10T01:43:04.294Z,13.7
2022-11-10T01:44:07.394Z,13.7
2022-11-10T01:45:10.224Z,13.7
2022-11-10T01:46:13.214Z,13.7
2022-11-10T01:47:15.926Z,13.7
2022-11-10T01:48:19.134Z,13.6
2022-11-10T01:49:22.209Z,13.6
2022-11-10T01:50:25.361Z,13.6
2022-11-10T01:51:28.430Z,13.6
2022-11-10T01:52:32.149Z,13.6
2022-11-10T01:53:34.585Z,13.6
2022-11-10T01:54:38.001Z,13.6
2022-11-10T01:55:41.003Z,13.6
2022-11-10T01:56:44.074Z,13.6
2022-11-10T01:57:47.509Z,13.6
2022-11-10T01:58:50.573Z,13.6
2022-11-10T01:59:54.272Z,13.6
2022-11-10T02:00:57.469Z,13.5
2022-11-10T02:02:00.647Z,13.6
2022-11-10T02:03:03.359Z,13.5
2022-11-10T02:04:05.916Z,13.5
2022-11-10T02:05:08.910Z,13.5
2022-11-10T02:06:12.630Z,13.5
2022-11-10T02:07:16.220Z,13.5
2022-11-10T02:08:19.150Z,13.5
2022-11-10T02:09:22.780Z,13.5
2022-11-10T02:10:25.667Z,13.5
2022-11-10T02:11:28.812Z,13.5
2022-11-10T02:12:30.784Z,13.5
2022-11-10T02:13:33.591Z,13.5
2022-11-10T02:14:36.663Z,13.5
2022-11-10T02:15:39.836Z,13.5
2022-11-10T02:16:43.468Z,13.5
2022-11-10T02:17:46.820Z,13.6
2022-11-10T02:18:50.202Z,13.5
2022-11-10T02:19:53.321Z,13.5
2022-11-10T02:20:56.670Z,13.5
2022-11-10T02:21:59.537Z,13.6
2022-11-10T02:23:02.890Z,13.5
2022-11-10T02:24:05.761Z,13.6
2022-11-10T02:25:08.566Z,13.6
2022-11-10T02:26:11.357Z,13.6
2022-11-10T02:27:15.050Z,13.5
2022-11-10T02:28:17.361Z,13.6
2022-11-10T02:29:20.355Z,13.6
2022-11-10T02:30:28.502Z,13.6
2022-11-10T02:31:31.312Z,13.6
2022-11-10T02:32:34.086Z,13.6
2022-11-10T02:33:36.513Z,13.6
2022-11-10T02:34:39.780Z,13.6
2022-11-10T02:35:42.889Z,13.6
2022-11-10T02:36:45.892Z,13.6
2022-11-10T02:37:49.036Z,13.6
2022-11-10T02:38:52.460Z,13.6
2022-11-10T02:39:55.274Z,13.6
2022-11-10T02:40:57.796Z,13.6
2022-11-10T02:42:00.329Z,13.6
2022-11-10T02:43:03.181Z,13.7
2022-11-10T02:44:05.898Z,13.6
2022-11-10T02:45:08.119Z,13.6
2022-11-10T02:46:10.622Z,13.6
2022-11-10T02:47:14.013Z,13.6
2022-11-10T02:48:17.005Z,13.6
2022-11-10T02:49:19.448Z,13.6
2022-11-10T02:50:22.908Z,13.7
2022-11-10T02:51:26.378Z,13.6
2022-11-10T02:52:29.260Z,13.7
2022-11-10T02:53:32.128Z,13.7
2022-11-10T02:54:35.853Z,13.7
2022-11-10T02:55:38.735Z,13.7
2022-11-10T02:56:42.265Z,13.6
2022-11-10T02:57:45.415Z,13.7
2022-11-10T02:58:48.452Z,13.7
2022-11-10T02:59:51.591Z,13.7
2022-11-10T03:00:54.041Z,13.7
2022-11-10T03:01:57.819Z,13.7
2022-11-10T03:03:01.315Z,13.7
2022-11-10T03:04:03.833Z,13.7
2022-11-10T03:05:07.008Z,13.7
2022-11-10T03:06:10.172Z,13.7
2022-11-10T03:07:13.198Z,13.7
2022-11-10T03:08:15.686Z,13.7
2022-11-10T03:09:18.616Z,13.7
2022-11-10T03:10:21.216Z,13.7
2022-11-10T03:11:32.975Z,13.7
2022-11-10T03:12:35.843Z,13.7
2022-11-10T03:14:03.028Z,13.7
2022-11-10T03:15:06.476Z,13.7
2022-11-10T03:16:08.999Z,13.7
2022-11-10T03:17:11.674Z,13.7
2022-11-10T03:18:15.407Z,13.7
2022-11-10T03:19:18.415Z,13.7
2022-11-10T03:20:21.354Z,13.7
2022-11-10T03:21:24.153Z,13.7
2022-11-10T03:22:27.068Z,13.7
2022-11-10T03:23:30.228Z,13.7
2022-11-10T03:24:32.810Z,13.7
2022-11-10T03:25:35.565Z,13.6
2022-11-10T03:26:38.942Z,13.6
2022-11-10T03:27:41.378Z,13.6
2022-11-10T03:28:44.904Z,13.6
2022-11-10T03:29:48.254Z,13.6
2022-11-10T03:30:51.932Z,13.6
2022-11-10T03:31:55.392Z,13.6
2022-11-10T03:32:58.189Z,13.6
2022-11-10T03:34:01.634Z,13.6
2022-11-10T03:35:05.369Z,13.6
2022-11-10T03:36:07.692Z,13.6
2022-11-10T03:37:11.069Z,13.6
2022-11-10T03:38:14.089Z,13.6
2022-11-10T03:39:17.188Z,13.6
2022-11-10T03:40:19.965Z,13.6
2022-11-10T03:41:23.100Z,13.6
2022-11-10T03:42:25.680Z,13.6
2022-11-10T03:43:28.396Z,13.5
2022-11-10T03:44:31.393Z,13.5
2022-11-10T03:45:34.740Z,13.5
2022-11-10T03:46:39.687Z,13.5
2022-11-10T03:47:54.382Z,13.5
2022-11-10T03:48:57.561Z,13.4
2022-11-10T03:50:00.659Z,13.4
2022-11-10T03:51:04.207Z,13.4
2022-11-10T03:52:06.926Z,13.4
2022-11-10T03:53:09.789Z,13.4
2022-11-10T03:54:13.569Z,13.4
2022-11-10T03:55:16.327Z,13.4
2022-11-10T03:56:19.131Z,13.3
2022-11-10T03:57:22.006Z,13.4
2022-11-10T03:58:24.723Z,13.3
2022-11-10T03:59:27.796Z,13.3
2022-11-10T04:00:30.886Z,13.3
2022-11-10T04:01:34.078Z,13.3
2022-11-10T04:02:37.391Z,13.3
2022-11-10T04:03:40.753Z,13.3
2022-11-10T04:04:44.101Z,13.3
2022-11-10T04:05:47.767Z,13.3
2022-11-10T04:06:50.689Z,13.3
2022-11-10T04:07:55.015Z,13.2
2022-11-10T04:08:57.480Z,13.2
2022-11-10T04:10:00.656Z,13.2
2022-11-10T04:11:03.368Z,13.2
2022-11-10T04:12:06.989Z,13.3
2022-11-10T04:13:10.082Z,13.2
2022-11-10T04:14:12.402Z,13.2
2022-11-10T04:15:15.872Z,13.2
2022-11-10T04:16:19.541Z,13.2
2022-11-10T04:17:22.980Z,13.2
2022-11-10T04:18:26.101Z,13.2
2022-11-10T04:19:29.742Z,13.2
2022-11-10T04:20:32.736Z,13.2
2022-11-10T04:21:36.220Z,13.2
2022-11-10T04:22:39.407Z,13.2
2022-11-10T04:23:42.133Z,13.2
2022-11-10T04:24:45.301Z,13.2
2022-11-10T04:25:48.607Z,13.2
2022-11-10T04:26:51.678Z,13.2
2022-11-10T04:27:54.837Z,13.2
2022-11-10T04:28:57.562Z,13.2
2022-11-10T04:30:00.817Z,13.2
2022-11-10T04:31:03.639Z,13.2
2022-11-10T04:32:06.445Z,13.2
2022-11-10T04:33:09.630Z,13.1
2022-11-10T04:34:12.194Z,13.1
2022-11-10T04:35:15.020Z,13.1
2022-11-10T04:36:17.547Z,13.1
2022-11-10T04:37:20.919Z,13.1
2022-11-10T04:38:23.798Z,13.1
2022-11-10T04:39:27.175Z,13.1
2022-11-10T04:40:30.133Z,13.1
2022-11-10T04:41:33.587Z,13.1
2022-11-10T04:42:36.100Z,13.1
2022-11-10T04:43:39.457Z,13
2022-11-10T04:44:42.317Z,13
2022-11-10T04:45:45.383Z,13
2022-11-10T04:46:48.736Z,13
2022-11-10T04:47:50.892Z,13
2022-11-10T04:48:54.261Z,12.9
2022-11-10T04:49:56.833Z,13
2022-11-10T04:51:00.014Z,12.9
2022-11-10T04:52:03.426Z,12.9
2022-11-10T04:53:06.792Z,12.9
2022-11-10T04:54:10.238Z,12.8
2022-11-10T04:55:13.989Z,12.8
2022-11-10T04:56:16.875Z,12.8
2022-11-10T04:57:20.148Z,12.8
2022-11-10T04:58:22.674Z,12.8
2022-11-10T04:59:26.270Z,12.7
2022-11-10T05:00:29.988Z,12.7
2022-11-10T05:01:33.521Z,12.7
2022-11-10T05:02:40.248Z,12.7
2022-11-10T05:03:43.902Z,12.7
2022-11-10T05:04:46.999Z,12.7
2022-11-10T05:05:50.478Z,12.7
2022-11-10T05:06:53.696Z,12.7
2022-11-10T05:07:56.940Z,12.6
2022-11-10T05:09:00.423Z,12.6
2022-11-10T05:10:04.022Z,12.6
2022-11-10T05:11:07.766Z,12.6
2022-11-10T05:12:10.565Z,12.6
2022-11-10T05:13:13.712Z,12.6
2022-11-10T05:14:16.493Z,12.6
2022-11-10T05:15:19.709Z,12.6
2022-11-10T05:16:22.878Z,12.6
2022-11-10T05:17:25.872Z,12.5
2022-11-10T05:18:28.748Z,12.5
2022-11-10T05:19:31.745Z,12.5
2022-11-10T05:20:34.344Z,12.5
2022-11-10T05:21:37.756Z,12.5
2022-11-10T05:22:46.494Z,12.5
2022-11-10T05:23:52.124Z,12.5
2022-11-10T05:24:55.551Z,12.5
2022-11-10T05:25:58.550Z,12.5
2022-11-10T05:27:01.995Z,12.5
2022-11-10T05:28:05.077Z,12.5
2022-11-10T05:29:08.375Z,12.4
2022-11-10T05:30:11.264Z,12.4
2022-11-10T05:31:14.712Z,12.4
2022-11-10T05:32:18.151Z,12.4
2022-11-10T05:33:22.691Z,12.3
2022-11-10T05:34:27.676Z,12.3
2022-11-10T05:35:30.485Z,12.3
2022-11-10T05:36:33.198Z,12.3
2022-11-10T05:37:36.692Z,12.3
2022-11-10T05:38:44.574Z,12.3
2022-11-10T05:39:47.751Z,12.3
2022-11-10T05:40:51.225Z,12.2
2022-11-10T05:41:53.663Z,12.2
2022-11-10T05:42:56.538Z,12.2
2022-11-10T05:43:59.438Z,12.2
2022-11-10T05:45:02.527Z,12.2
2022-11-10T05:46:05.893Z,12.2
2022-11-10T05:47:09.125Z,12.2
2022-11-10T05:48:11.917Z,12.2
2022-11-10T05:49:14.702Z,12.2
2022-11-10T05:50:17.775Z,12.1
2022-11-10T05:51:20.921Z,12.1
2022-11-10T05:52:24.010Z,12.1
2022-11-10T05:53:26.866Z,12.1
2022-11-10T05:54:30.322Z,12.1
2022-11-10T05:55:33.300Z,12.1
2022-11-10T05:56:36.115Z,12.1
2022-11-10T05:57:38.553Z,12.1
2022-11-10T05:58:41.638Z,12.1
2022-11-10T05:59:43.515Z,12.1
2022-11-10T06:00:46.390Z,12.1
2022-11-10T06:01:49.482Z,12.1
2022-11-10T06:02:52.538Z,12
2022-11-10T06:03:56.331Z,12.1
2022-11-10T06:04:58.700Z,12
2022-11-10T06:06:01.404Z,12
2022-11-10T06:07:04.395Z,12
2022-11-10T06:08:08.039Z,12
2022-11-10T06:09:11.778Z,12
2022-11-10T06:10:14.550Z,12
2022-11-10T06:11:17.597Z,12
2022-11-10T06:12:21.414Z,12
2022-11-10T06:13:25.653Z,12
2022-11-10T06:14:28.672Z,12
2022-11-10T06:15:32.112Z,12
2022-11-10T06:16:35.399Z,12
2022-11-10T06:17:38.203Z,12
2022-11-10T06:18:41.280Z,12
2022-11-10T06:19:43.513Z,12.1
2022-11-10T06:20:46.031Z,12.1
2022-11-10T06:21:49.185Z,12
2022-11-10T06:23:09.049Z,12.1
2022-11-10T06:24:12.410Z,12.1
2022-11-10T06:25:15.265Z,12.1
2022-11-10T06:26:18.290Z,12.1
2022-11-10T06:27:21.166Z,12.1
2022-11-10T06:28:25.217Z,12
2022-11-10T06:29:28.573Z,12.1
2022-11-10T06:30:31.582Z,12
2022-11-10T06:31:34.663Z,12.1
2022-11-10T06:32:37.825Z,12.1
2022-11-10T06:33:40.627Z,12.1
2022-11-10T06:34:43.141Z,12.1
2022-11-10T06:35:46.230Z,12.1
2022-11-10T06:36:49.950Z,12.1
2022-11-10T06:37:53.292Z,12.1
2022-11-10T06:38:55.808Z,12.1
2022-11-10T06:39:58.555Z,12.1
2022-11-10T06:41:02.038Z,12.1
2022-11-10T06:42:05.032Z,12.1
2022-11-10T06:43:07.576Z,12.1
2022-11-10T06:44:11.320Z,12.1
2022-11-10T06:45:13.920Z,12.1
2022-11-10T06:46:17.020Z,12.1
2022-11-10T06:47:19.352Z,12.1
2022-11-10T06:48:23.021Z,12.1
2022-11-10T06:49:25.821Z,12.1
2022-11-10T06:50:28.680Z,12.1
2022-11-10T06:51:31.825Z,12.1
2022-11-10T06:52:34.802Z,12.1
2022-11-10T06:53:37.595Z,12.1
2022-11-10T06:54:40.039Z,12.2
2022-11-10T06:55:42.483Z,12.2
2022-11-10T06:56:45.979Z,12.2
2022-11-10T06:57:49.078Z,12.2
2022-11-10T06:58:51.686Z,12.2
2022-11-10T06:59:55.100Z,12.2
2022-11-10T07:00:58.110Z,12.2
2022-11-10T07:02:01.236Z,12.3
2022-11-10T07:03:04.334Z,12.3
2022-11-10T07:04:21.734Z,12.3
2022-11-10T07:05:24.460Z,12.3
2022-11-10T07:06:27.454Z,12.3
2022-11-10T07:07:31.190Z,12.3
2022-11-10T07:08:33.733Z,12.3
2022-11-10T07:09:36.265Z,12.3
2022-11-10T07:10:38.857Z,12.3
2022-11-10T07:11:41.652Z,12.3
2022-11-10T07:12:45.037Z,12.3
2022-11-10T07:13:47.917Z,12.3
2022-11-10T07:14:50.422Z,12.3
2022-11-10T07:15:53.598Z,12.4
2022-11-10T07:16:56.125Z,12.4
2022-11-10T07:17:59.007Z,12.4
2022-11-10T07:19:01.733Z,12.4
2022-11-10T07:20:04.857Z,12.4
2022-11-10T07:21:07.385Z,12.4
2022-11-10T07:22:12.159Z,12.4
2022-11-10T07:23:15.153Z,12.4
2022-11-10T07:24:18.147Z,12.5
2022-11-10T07:25:21.556Z,12.5
2022-11-10T07:26:25.096Z,12.5
2022-11-10T07:27:28.161Z,12.5
2022-11-10T07:28:31.735Z,12.5
2022-11-10T07:29:34.783Z,12.6
2022-11-10T07:30:37.596Z,12.5
2022-11-10T07:31:41.036Z,12.6
2022-11-10T07:32:44.104Z,12.6
2022-11-10T07:33:55.194Z,12.6
2022-11-10T07:34:58.467Z,12.6
2022-11-10T07:36:01.310Z,12.6
2022-11-10T07:37:04.113Z,12.6
2022-11-10T07:38:07.575Z,12.6
2022-11-10T07:39:10.449Z,12.6
2022-11-10T07:40:13.332Z,12.6
2022-11-10T07:41:16.204Z,12.6
2022-11-10T07:42:19.292Z,12.6
2022-11-10T07:43:23.720Z,12.7
2022-11-10T07:44:28.005Z,12.6
2022-11-10T07:45:31.653Z,12.7
2022-11-10T07:46:35.369Z,12.7
2022-11-10T07:47:38.746Z,12.7
2022-11-10T07:48:42.480Z,12.7
2022-11-10T07:49:46.175Z,12.6
2022-11-10T07:50:49.277Z,12.6
2022-11-10T07:51:52.379Z,12.6
2022-11-10T07:52:55.550Z,12.7
2022-11-10T07:53:58.880Z,12.7
2022-11-10T07:55:01.671Z,12.7
2022-11-10T07:56:05.687Z,12.7
2022-11-10T07:57:08.571Z,12.7
2022-11-10T07:58:11.676Z,12.7
2022-11-10T07:59:15.098Z,12.8
2022-11-10T08:00:18.787Z,12.7
2022-11-10T08:01:21.939Z,12.8
2022-11-10T08:02:25.289Z,12.8
2022-11-10T08:03:28.804Z,12.8
2022-11-10T08:04:30.762Z,12.8
2022-11-10T08:05:33.609Z,12.8
2022-11-10T08:06:38.121Z,12.8
2022-11-10T08:07:42.268Z,12.9
2022-11-10T08:08:46.485Z,12.9
2022-11-10T08:09:49.562Z,12.9
2022-11-10T08:10:52.092Z,12.9
2022-11-10T08:11:56.178Z,13
2022-11-10T08:12:59.243Z,13
2022-11-10T08:14:02.965Z,13
2022-11-10T08:15:05.855Z,13
2022-11-10T08:16:09.255Z,13
2022-11-10T08:17:12.605Z,13.1
2022-11-10T08:18:16.226Z,13.1
2022-11-10T08:19:19.377Z,13.1
2022-11-10T08:20:21.975Z,13.2
2022-11-10T08:21:25.394Z,13.2
2022-11-10T08:22:28.577Z,13.2
2022-11-10T08:23:31.984Z,13.2
2022-11-10T08:24:35.442Z,13.2
2022-11-10T08:25:38.916Z,13.3
2022-11-10T08:26:41.625Z,13.3
2022-11-10T08:27:44.488Z,13.3
2022-11-10T08:28:47.302Z,13.3
2022-11-10T08:29:50.678Z,13.3
2022-11-10T08:30:53.471Z,13.3
2022-11-10T08:31:57.569Z,13.3
2022-11-10T08:33:00.657Z,13.3
2022-11-10T08:34:03.451Z,13.3
2022-11-10T08:35:06.983Z,13.2
2022-11-10T08:36:10.261Z,13.2
2022-11-10T08:37:13.391Z,13.2
2022-11-10T08:38:16.851Z,13.2
2022-11-10T08:39:40.258Z,13.2
2022-11-10T08:40:43.600Z,13.2
2022-11-10T08:41:47.036Z,13.2
2022-11-10T08:42:50.001Z,13.2
2022-11-10T08:43:53.629Z,13.2
2022-11-10T08:44:56.158Z,13.2
2022-11-10T08:45:58.877Z,13.3
2022-11-10T08:47:02.652Z,13.3
2022-11-10T08:48:05.532Z,13.3
2022-11-10T08:49:08.427Z,13.3
2022-11-10T08:50:11.723Z,13.3
2022-11-10T08:51:14.451Z,13.3
2022-11-10T08:52:17.321Z,13.4
2022-11-10T08:53:21.459Z,13.4
2022-11-10T08:54:26.276Z,13.4
2022-11-10T08:55:29.477Z,13.4
2022-11-10T08:56:33.211Z,13.4
2022-11-10T08:57:37.045Z,13.4
2022-11-10T08:58:54.048Z,13.5
2022-11-10T08:59:57.423Z,13.5
2022-11-10T09:01:00.501Z,13.5
2022-11-10T09:02:03.953Z,13.5
2022-11-10T09:03:07.653Z,13.5
2022-11-10T09:04:11.240Z,13.5
2022-11-10T09:05:14.797Z,13.5
2022-11-10T09:06:17.592Z,13.5
2022-11-10T09:07:20.497Z,13.5
2022-11-10T09:08:23.674Z,13.5
2022-11-10T09:09:26.499Z,13.5
2022-11-10T09:10:29.645Z,13.5
2022-11-10T09:11:32.156Z,13.5
2022-11-10T09:12:36.081Z,13.5
2022-11-10T09:13:39.498Z,13.5
2022-11-10T09:14:42.495Z,13.5
2022-11-10T09:15:45.842Z,13.5
2022-11-10T09:16:49.296Z,13.5
2022-11-10T09:17:52.457Z,13.5
2022-11-10T09:18:56.222Z,13.5
2022-11-10T09:19:59.484Z,13.5
2022-11-10T09:21:03.581Z,13.5
2022-11-10T09:22:05.842Z,13.5
2022-11-10T09:23:08.931Z,13.5
2022-11-10T09:24:11.528Z,13.5
2022-11-10T09:25:14.415Z,13.5
2022-11-10T09:26:17.407Z,13.5
2022-11-10T09:27:20.504Z,13.6
2022-11-10T09:28:23.670Z,13.6
2022-11-10T09:29:26.460Z,13.6
2022-11-10T09:30:30.028Z,13.6
2022-11-10T09:31:32.901Z,13.6
2022-11-10T09:32:36.359Z,13.6
2022-11-10T09:33:39.537Z,13.6
2022-11-10T09:34:44.826Z,13.6
2022-11-10T09:35:55.775Z,13.6
2022-11-10T09:36:59.231Z,13.6
2022-11-10T09:38:02.666Z,13.6
2022-11-10T09:39:05.679Z,13.6
2022-11-10T09:40:13.843Z,13.6
2022-11-10T09:41:17.226Z,13.5
2022-11-10T09:42:20.852Z,13.6
2022-11-10T09:43:25.087Z,13.6
2022-11-10T09:44:28.580Z,13.6
2022-11-10T09:45:39.736Z,13.6
2022-11-10T09:46:43.062Z,13.6
2022-11-10T09:48:01.571Z,13.6
2022-11-10T09:49:04.928Z,13.6
2022-11-10T09:50:08.711Z,13.6
2022-11-10T09:51:12.247Z,13.6
2022-11-10T09:52:15.412Z,13.6
2022-11-10T09:53:18.007Z,13.6
2022-11-10T09:54:21.405Z,13.7
2022-11-10T09:55:23.714Z,13.6
2022-11-10T09:56:27.089Z,13.7
2022-11-10T09:57:29.893Z,13.7
2022-11-10T09:58:32.981Z,13.7
2022-11-10T09:59:37.034Z,13.7
2022-11-10T10:00:40.386Z,13.7
2022-11-10T10:01:43.022Z,13.7
2022-11-10T10:02:46.638Z,13.7
2022-11-10T10:03:49.628Z,13.7
2022-11-10T10:04:53.381Z,13.7
2022-11-10T10:05:57.410Z,13.6
2022-11-10T10:07:12.649Z,13.6
2022-11-10T10:08:16.737Z,13.7
2022-11-10T10:09:19.901Z,13.6
2022-11-10T10:10:23.143Z,13.7
2022-11-10T10:11:25.865Z,13.7
2022-11-10T10:12:28.674Z,13.7
2022-11-10T10:13:31.485Z,13.7
2022-11-10T10:14:34.947Z,13.7
2022-11-10T10:15:38.482Z,13.7
2022-11-10T10:16:41.574Z,13.7
2022-11-10T10:17:44.033Z,13.7
2022-11-10T10:18:46.554Z,13.7
2022-11-10T10:19:49.121Z,13.7
2022-11-10T10:20:52.479Z,13.7
2022-11-10T10:21:56.534Z,13.7
2022-11-10T10:22:59.995Z,13.8
2022-11-10T10:24:21.348Z,13.8
2022-11-10T10:25:25.341Z,13.8
2022-11-10T10:26:28.416Z,13.8
2022-11-10T10:27:31.248Z,13.9
2022-11-10T10:28:34.805Z,13.9
2022-11-10T10:29:38.905Z,13.9
2022-11-10T10:30:41.968Z,13.9
2022-11-10T10:31:44.874Z,13.9
2022-11-10T10:32:48.246Z,13.9
2022-11-10T10:33:51.049Z,13.9
2022-11-10T10:34:54.393Z,14
2022-11-10T10:35:58.100Z,14
2022-11-10T10:37:01.523Z,14
2022-11-10T10:38:03.992Z,14
2022-11-10T10:39:08.035Z,14
2022-11-10T10:40:10.920Z,14
2022-11-10T10:41:14.778Z,14
2022-11-10T10:42:26.853Z,14.1
2022-11-10T10:43:29.182Z,14.1
2022-11-10T10:44:32.840Z,14.1
2022-11-10T10:45:35.521Z,14.1
2022-11-10T10:46:38.803Z,14.2
2022-11-10T10:47:42.149Z,14.2
2022-11-10T10:49:27.792Z,14.2
2022-11-10T10:50:34.282Z,14.2
2022-11-10T10:51:37.072Z,14.2
2022-11-10T10:52:40.762Z,14.2
2022-11-10T10:53:44.141Z,14.2
2022-11-10T10:54:48.245Z,14.3
2022-11-10T10:55:50.772Z,14.3
2022-11-10T10:56:54.221Z,14.3
2022-11-10T10:57:57.946Z,14.3
2022-11-10T10:59:00.737Z,14.3
2022-11-10T11:00:03.907Z,14.3
2022-11-10T11:01:08.134Z,14.3
2022-11-10T11:02:11.595Z,14.3
2022-11-10T11:03:14.400Z,14.3
2022-11-10T11:04:17.203Z,14.4
2022-11-10T11:05:20.015Z,14.4
2022-11-10T11:06:23.095Z,14.4
2022-11-10T11:07:26.003Z,14.4
2022-11-10T11:08:29.500Z,14.4
2022-11-10T11:09:32.865Z,14.4
2022-11-10T11:10:36.725Z,14.4
2022-11-10T11:11:39.845Z,14.4
2022-11-10T11:12:42.923Z,14.4
2022-11-10T11:13:46.896Z,14.4
2022-11-10T11:14:49.901Z,14.3
2022-11-10T11:15:52.708Z,14.3
2022-11-10T11:16:55.798Z,14.4
2022-11-10T11:17:58.885Z,14.4
2022-11-10T11:19:02.002Z,14.4
2022-11-10T11:20:04.793Z,14.4
2022-11-10T11:21:08.329Z,14.4
2022-11-10T11:22:12.015Z,14.5
2022-11-10T11:23:15.268Z,14.4
2022-11-10T11:24:18.857Z,14.5
2022-11-10T11:25:22.217Z,14.4
2022-11-10T11:26:25.036Z,14.5
2022-11-10T11:27:28.136Z,14.5
2022-11-10T11:28:31.912Z,14.5
2022-11-10T11:29:35.728Z,14.5
2022-11-10T11:30:38.565Z,14.5
2022-11-10T11:31:44.294Z,14.5
2022-11-10T11:32:47.839Z,14.5
2022-11-10T11:33:50.892Z,14.5
2022-11-10T11:34:53.333Z,14.5
2022-11-10T11:35:56.118Z,14.5
2022-11-10T11:36:58.984Z,14.5
2022-11-10T11:38:01.959Z,14.5
2022-11-10T11:39:04.701Z,14.5
2022-11-10T11:40:08.461Z,14.5
2022-11-10T11:41:11.190Z,14.5
2022-11-10T11:42:14.668Z,14.6
2022-11-10T11:43:17.656Z,14.5
2022-11-10T11:44:21.112Z,14.6
2022-11-10T11:45:23.827Z,14.6
2022-11-10T11:46:26.854Z,14.6
2022-11-10T11:47:29.968Z,14.6
2022-11-10T11:48:33.034Z,14.7
2022-11-10T11:49:36.454Z,14.6
2022-11-10T11:50:39.986Z,14.6
2022-11-10T11:51:43.001Z,14.7
2022-11-10T11:52:46.007Z,14.7
2022-11-10T11:53:49.538Z,14.7
2022-11-10T11:54:53.279Z,14.7
2022-11-10T11:55:56.125Z,14.7
2022-11-10T11:56:59.784Z,14.7
2022-11-10T11:58:03.520Z,14.7
2022-11-10T11:59:06.085Z,14.7
2022-11-10T12:00:09.433Z,14.7
2022-11-10T12:01:13.149Z,14.7
2022-11-10T12:02:17.131Z,14.7
2022-11-10T12:03:20.731Z,14.7
2022-11-10T12:04:23.480Z,14.7
2022-11-10T12:05:26.928Z,14.7
2022-11-10T12:06:30.627Z,14.7
2022-11-10T12:07:33.701Z,14.7
2022-11-10T12:08:36.777Z,14.7
2022-11-10T12:09:39.391Z,14.7
2022-11-10T12:10:44.404Z,14.8
2022-11-10T12:11:47.868Z,14.8
2022-11-10T12:12:51.135Z,14.8
2022-11-10T12:13:54.632Z,14.8
2022-11-10T12:14:57.990Z,14.8
2022-11-10T12:16:00.438Z,14.9
2022-11-10T12:17:03.246Z,14.9
2022-11-10T12:18:06.387Z,14.9
2022-11-10T12:19:09.664Z,14.9
2022-11-10T12:20:13.003Z,14.9
2022-11-10T12:21:16.675Z,15
2022-11-10T12:22:20.032Z,15
2022-11-10T12:23:23.316Z,15
2022-11-10T12:24:26.495Z,15
2022-11-10T12:25:29.690Z,15
2022-11-10T12:26:32.693Z,15.1
2022-11-10T12:27:36.386Z,15.1
2022-11-10T12:28:39.756Z,15.1
2022-11-10T12:29:43.250Z,15.1
2022-11-10T12:30:46.917Z,15.1
2022-11-10T12:31:49.719Z,15.1
2022-11-10T12:32:52.708Z,15.1
2022-11-10T12:33:55.786Z,15.1
2022-11-10T12:34:59.240Z,15.1
2022-11-10T12:36:02.337Z,15.1
2022-11-10T12:37:05.860Z,15.1
2022-11-10T12:38:09.219Z,15.1
2022-11-10T12:39:12.210Z,15.1
2022-11-10T12:40:15.926Z,15.1
2022-11-10T12:41:19.387Z,15.2
2022-11-10T12:42:22.193Z,15.1
2022-11-10T12:43:26.168Z,15.2
2022-11-10T12:44:29.078Z,15.1
2022-11-10T12:45:32.313Z,15.2
2022-11-10T12:46:35.394Z,15.2
2022-11-10T12:47:38.366Z,15.2
2022-11-10T12:48:41.542Z,15.2
2022-11-10T12:49:44.891Z,15.3
2022-11-10T12:50:47.437Z,15.3
2022-11-10T12:51:50.530Z,15.3
2022-11-10T12:52:53.990Z,15.4
2022-11-10T12:53:56.803Z,15.4
2022-11-10T12:54:59.875Z,15.4
2022-11-10T12:56:03.035Z,15.4
2022-11-10T12:57:05.862Z,15.4
2022-11-10T12:58:08.712Z,15.4
2022-11-10T12:59:12.381Z,15.4
2022-11-10T13:00:27.888Z,15.4
2022-11-10T13:01:32.665Z,15.4
2022-11-10T13:02:36.705Z,15.4
2022-11-10T13:03:40.069Z,15.4
2022-11-10T13:04:42.587Z,15.4
2022-11-10T13:05:45.393Z,15.4
2022-11-10T13:06:48.729Z,15.4
2022-11-10T13:07:52.657Z,15.4
2022-11-10T13:08:55.616Z,15.4
2022-11-10T13:09:58.760Z,15.4
2022-11-10T13:11:01.554Z,15.4
2022-11-10T13:12:04.152Z,15.4
2022-11-10T13:13:07.495Z,15.4
2022-11-10T13:14:10.080Z,15.4
2022-11-10T13:15:13.074Z,15.4
2022-11-10T13:16:16.251Z,15.4
2022-11-10T13:17:19.814Z,15.4
2022-11-10T13:18:24.290Z,15.4
2022-11-10T13:19:27.561Z,15.4
2022-11-10T13:20:32.716Z,15.4
2022-11-10T13:21:36.117Z,15.5
2022-11-10T13:22:38.916Z,15.5
2022-11-10T13:23:41.655Z,15.5
2022-11-10T13:24:45.148Z,15.5
2022-11-10T13:25:49.079Z,15.5
2022-11-10T13:26:52.456Z,15.5
2022-11-10T13:27:56.140Z,15.5
2022-11-10T13:28:59.795Z,15.5
2022-11-10T13:30:02.713Z,15.5
2022-11-10T13:31:06.204Z,15.4
2022-11-10T13:32:09.398Z,15.4
2022-11-10T13:33:12.906Z,15.4
2022-11-10T13:34:15.980Z,15.4
2022-11-10T13:35:19.434Z,15.4
2022-11-10T13:36:22.522Z,15.4
2022-11-10T13:37:24.962Z,15.4
2022-11-10T13:38:28.047Z,15.4
2022-11-10T13:39:31.466Z,15.4
2022-11-10T13:40:34.914Z,15.3
2022-11-10T13:41:37.651Z,15.3
2022-11-10T13:42:47.623Z,15.3
2022-11-10T13:43:50.418Z,15.2
2022-11-10T13:44:54.154Z,15.2
2022-11-10T13:45:57.497Z,15.2
2022-11-10T13:47:00.697Z,15.2
2022-11-10T13:48:03.545Z,15.2
2022-11-10T13:49:14.318Z,15.2
2022-11-10T13:50:18.840Z,15.2
2022-11-10T13:51:21.999Z,15.2
2022-11-10T13:52:25.343Z,15.2
2022-11-10T13:53:28.768Z,15.2
2022-11-10T13:54:31.947Z,15.2
2022-11-10T13:55:35.672Z,15.2
2022-11-10T13:56:38.370Z,15.2
2022-11-10T13:57:41.374Z,15.2
2022-11-10T13:58:43.626Z,15.2
2022-11-10T13:59:46.044Z,15.2
2022-11-10T14:00:49.466Z,15.3
2022-11-10T14:01:52.275Z,15.2
2022-11-10T14:02:56.625Z,15.2
2022-11-10T14:03:59.926Z,15.2
2022-11-10T14:05:04.210Z,15.3
2022-11-10T14:06:06.732Z,15.2
2022-11-10T14:07:10.195Z,15.2
2022-11-10T14:08:13.578Z,15.3
2022-11-10T14:09:16.758Z,15.3